Time;durP1;ratioP1;P1;durP2;ratioP2;P2;SDS_P1;SDS_P2;PMS_P1;PMS_P2;Temp;Humidity;BMP_temperature;BMP_pressure;BME280_temperature;BME280_humidity;BME280_pressure;Samples;Min_cycle;Max_cycle;Signal;HPM_P1;HPM_P2
2023/07/11 00:02:15;;;;;;;10.20;7.28;;;24.60;68.20;;;;;;6196666;27;80384;-63
2023/07/11 00:05:15;;;;;;;11.70;8.40;;;24.70;67.60;;;;;;6189530;28;81365;-63
2023/07/11 00:08:16;;;;;;;11.90;7.75;;;24.70;67.60;;;;;;6201862;27;80620;-63
2023/07/11 00:11:16;;;;;;;14.85;7.20;;;24.70;67.60;;;;;;6201664;27;81416;-63
2023/07/11 00:14:17;;;;;;;9.38;7.15;;;24.70;67.60;;;;;;6202616;28;80805;-62
2023/07/11 00:17:17;;;;;;;11.35;7.28;;;24.80;67.60;;;;;;6187465;28;80654;-63
2023/07/11 00:20:18;;;;;;;11.45;8.13;;;24.80;67.90;;;;;;6193354;28;80677;-63
2023/07/11 00:23:18;;;;;;;11.55;7.35;;;24.90;67.70;;;;;;6203449;27;81172;-66
2023/07/11 00:26:19;;;;;;;11.82;8.18;;;25.00;67.60;;;;;;6189880;28;80421;-64
2023/07/11 00:29:20;;;;;;;9.65;7.38;;;25.10;67.30;;;;;;6201827;27;80876;-62
2023/07/11 00:32:20;;;;;;;9.57;7.15;;;25.20;67.10;;;;;;6192004;28;82048;-64
2023/07/11 00:35:21;;;;;;;12.20;8.65;;;25.20;67.00;;;;;;6217471;28;81471;-58
2023/07/11 00:38:21;;;;;;;15.60;6.70;;;25.20;67.60;;;;;;6226292;27;80738;-60
2023/07/11 00:41:22;;;;;;;10.68;7.20;;;25.10;68.00;;;;;;6226308;27;81635;-61
2023/07/11 00:44:23;;;;;;;9.73;7.57;;;25.30;67.70;;;;;;6226269;28;83812;-62
2023/07/11 00:47:23;;;;;;;13.25;7.65;;;25.40;67.60;;;;;;6224707;28;83733;-61
2023/07/11 00:50:24;;;;;;;12.07;7.22;;;25.40;67.70;;;;;;6226170;28;80868;-61
2023/07/11 00:53:24;;;;;;;10.57;7.68;;;25.40;67.90;;;;;;6223796;27;81020;-70
2023/07/11 00:56:25;;;;;;;8.60;7.13;;;25.50;67.70;;;;;;6227335;27;80167;-68
2023/07/11 00:59:25;;;;;;;10.95;7.50;;;25.50;67.50;;;;;;6226768;27;80828;-69
2023/07/11 01:02:26;;;;;;;12.77;7.30;;;25.50;67.40;;;;;;6224580;28;83119;-65
2023/07/11 01:05:27;;;;;;;16.20;8.07;;;25.50;67.30;;;;;;6201491;28;82540;-67
2023/07/11 01:08:28;;;;;;;12.20;7.18;;;25.60;67.40;;;;;;6186014;28;81948;-67
2023/07/11 01:11:28;;;;;;;13.55;7.45;;;25.50;68.10;;;;;;6186475;28;81893;-59
2023/07/11 01:14:29;;;;;;;16.60;8.27;;;25.50;68.10;;;;;;6184473;28;81623;-60
2023/07/11 01:17:30;;;;;;;11.40;7.38;;;25.50;68.40;;;;;;6186114;28;80508;-58
2023/07/11 01:20:31;;;;;;;12.10;7.20;;;25.50;68.20;;;;;;6191682;28;81030;-59
2023/07/11 01:23:31;;;;;;;10.82;7.47;;;25.50;68.10;;;;;;6195734;28;80831;-58
2023/07/11 01:26:32;;;;;;;11.27;7.70;;;25.60;68.00;;;;;;6202661;28;82243;-58
2023/07/11 01:29:32;;;;;;;16.00;7.95;;;25.60;68.00;;;;;;6201217;27;80673;-65
2023/07/11 01:32:33;;;;;;;9.52;7.30;;;25.70;67.70;;;;;;6202039;28;80622;-64
2023/07/11 01:35:33;;;;;;;11.65;8.10;;;25.70;67.60;;;;;;6219748;28;80835;-68
2023/07/11 01:38:34;;;;;;;17.08;8.05;;;25.70;67.80;;;;;;6223971;28;82116;-68
2023/07/11 01:41:35;;;;;;;10.18;7.57;;;25.70;67.40;;;;;;6225974;27;81295;-66
2023/07/11 01:44:35;;;;;;;12.25;7.57;;;25.70;67.50;;;;;;6224814;28;81413;-68
2023/07/11 01:47:36;;;;;;;15.02;8.18;;;25.80;67.80;;;;;;6215522;27;81478;-71
2023/07/11 01:50:36;;;;;;;9.63;6.97;;;25.70;67.80;;;;;;6184194;28;80747;-71
2023/07/11 01:53:37;;;;;;;10.90;7.68;;;25.80;67.80;;;;;;6205574;28;86882;-71
2023/07/11 01:56:37;;;;;;;12.07;7.57;;;25.80;67.50;;;;;;6206041;28;82177;-72
2023/07/11 01:59:38;;;;;;;10.98;7.15;;;25.90;68.30;;;;;;6211130;28;82156;-71
2023/07/11 02:02:38;;;;;;;8.77;6.78;;;25.80;67.70;;;;;;6209986;28;83216;-70
2023/07/11 02:05:39;;;;;;;10.02;7.07;;;25.90;67.60;;;;;;6206508;28;80409;-72
2023/07/11 02:08:39;;;;;;;12.48;7.68;;;25.80;68.00;;;;;;6202386;28;81250;-72
2023/07/11 02:11:40;;;;;;;14.13;6.53;;;25.70;68.20;;;;;;6205428;28;81672;-69
2023/07/11 02:14:40;;;;;;;10.40;7.00;;;25.70;68.50;;;;;;6190779;28;81139;-66
2023/07/11 02:17:41;;;;;;;10.60;7.43;;;25.80;68.40;;;;;;6177476;28;80623;-63
2023/07/11 02:20:43;;;;;;;12.32;7.60;;;25.70;68.60;;;;;;6186840;28;81763;-64
2023/07/11 02:23:43;;;;;;;10.10;7.40;;;25.60;69.00;;;;;;6188585;28;81528;-64
2023/07/11 02:26:44;;;;;;;14.02;7.85;;;25.70;69.10;;;;;;6219468;28;80549;-60
2023/07/11 02:29:44;;;;;;;15.13;7.93;;;25.70;69.30;;;;;;6187735;28;83655;-59
2023/07/11 02:32:45;;;;;;;14.65;7.68;;;25.70;69.10;;;;;;6226203;28;80910;-59
2023/07/11 02:35:45;;;;;;;11.70;7.65;;;25.80;68.90;;;;;;6229686;27;80902;-59
2023/07/11 02:38:46;;;;;;;14.55;8.55;;;25.80;69.00;;;;;;6220433;27;81783;-59
2023/07/11 02:41:47;;;;;;;13.65;7.70;;;25.80;69.20;;;;;;6204061;28;81310;-59
2023/07/11 02:44:47;;;;;;;12.90;8.13;;;25.80;68.90;;;;;;6190117;28;81023;-69
2023/07/11 02:47:48;;;;;;;10.52;8.05;;;25.80;68.90;;;;;;6204918;27;81030;-68
2023/07/11 02:50:48;;;;;;;13.10;7.78;;;25.90;68.90;;;;;;6191027;28;80229;-68
2023/07/11 02:53:48;;;;;;;17.50;7.97;;;25.80;69.20;;;;;;6224692;28;81237;-67
2023/07/11 02:56:49;;;;;;;12.30;8.40;;;25.70;69.30;;;;;;6223091;27;80086;-71
2023/07/11 02:59:49;;;;;;;23.63;7.95;;;25.80;69.30;;;;;;6230258;27;80342;-69
2023/07/11 03:02:50;;;;;;;12.40;7.63;;;25.70;69.50;;;;;;6227580;27;80546;-60
2023/07/11 03:05:50;;;;;;;12.57;8.05;;;25.70;69.40;;;;;;6209250;27;81436;-59
2023/07/11 03:08:51;;;;;;;14.15;8.48;;;25.70;69.40;;;;;;6189474;28;81248;-61
2023/07/11 03:11:51;;;;;;;16.85;8.65;;;25.70;69.20;;;;;;6191692;28;80572;-60
2023/07/11 03:14:52;;;;;;;10.25;7.53;;;25.70;69.40;;;;;;6196245;28;81341;-61
2023/07/11 03:17:52;;;;;;;15.52;8.75;;;25.70;69.50;;;;;;6204102;28;80148;-61
2023/07/11 03:20:53;;;;;;;12.38;8.00;;;25.60;69.60;;;;;;6202990;28;80853;-62
2023/07/11 03:23:53;;;;;;;12.40;7.35;;;25.50;69.70;;;;;;6189085;28;82265;-60
2023/07/11 03:26:54;;;;;;;11.48;7.65;;;25.70;69.50;;;;;;6199744;27;84593;-60
2023/07/11 03:29:54;;;;;;;14.55;7.90;;;25.70;69.40;;;;;;6178766;28;80271;-60
2023/07/11 03:32:55;;;;;;;14.23;7.97;;;25.70;69.60;;;;;;6227734;28;80121;-60
2023/07/11 03:35:55;;;;;;;13.98;8.18;;;25.60;69.70;;;;;;6222699;28;80565;-60
2023/07/11 03:38:56;;;;;;;15.02;7.53;;;25.60;69.60;;;;;;6228596;27;80586;-61
2023/07/11 03:41:56;;;;;;;14.65;7.63;;;25.50;69.60;;;;;;6195480;28;82529;-60
2023/07/11 03:44:57;;;;;;;16.42;7.20;;;25.60;69.50;;;;;;6195148;28;81689;-63
2023/07/11 03:47:57;;;;;;;11.98;7.45;;;25.60;69.60;;;;;;6202369;27;80792;-59
2023/07/11 03:50:58;;;;;;;11.13;7.57;;;25.50;69.70;;;;;;6179750;28;80897;-60
2023/07/11 03:53:58;;;;;;;11.65;8.23;;;25.50;69.70;;;;;;6178866;28;80770;-57
2023/07/11 03:56:59;;;;;;;10.75;7.63;;;25.40;69.80;;;;;;6199111;28;81461;-60
2023/07/11 03:59:59;;;;;;;10.45;7.55;;;25.40;69.90;;;;;;6223804;28;80718;-62
2023/07/11 04:03:00;;;;;;;10.82;7.22;;;25.50;69.60;;;;;;6223574;27;83292;-61
2023/07/11 04:06:00;;;;;;;8.52;7.00;;;25.50;69.60;;;;;;6225685;27;81762;-60
2023/07/11 04:09:01;;;;;;;10.07;7.75;;;25.50;69.30;;;;;;6224154;27;80496;-60
2023/07/11 04:12:01;;;;;;;10.73;7.35;;;25.50;69.30;;;;;;6224199;27;80505;-58
2023/07/11 04:15:02;;;;;;;15.75;7.97;;;25.50;69.30;;;;;;6225327;28;86304;-61
2023/07/11 04:18:02;;;;;;;11.20;7.30;;;25.40;69.20;;;;;;6194306;28;80400;-63
2023/07/11 04:21:03;;;;;;;15.40;7.65;;;25.50;69.50;;;;;;6197234;28;81118;-61
2023/07/11 04:24:03;;;;;;;11.25;7.50;;;25.50;69.40;;;;;;6213020;28;80613;-59
2023/07/11 04:27:04;;;;;;;10.98;6.80;;;25.50;69.30;;;;;;6198265;28;80534;-61
2023/07/11 04:30:04;;;;;;;15.52;7.50;;;25.50;69.20;;;;;;6192536;28;80818;-62
2023/07/11 04:33:05;;;;;;;8.73;6.25;;;25.50;69.00;;;;;;6190809;28;80510;-63
2023/07/11 04:36:06;;;;;;;13.43;6.72;;;25.50;69.20;;;;;;6182675;28;81071;-64
2023/07/11 04:39:07;;;;;;;9.32;6.80;;;25.50;69.30;;;;;;6191796;28;80785;-64
2023/07/11 04:42:07;;;;;;;11.00;7.78;;;25.40;69.30;;;;;;6191420;28;81018;-65
2023/07/11 04:45:08;;;;;;;11.48;7.53;;;25.50;69.60;;;;;;6187704;28;82608;-64
2023/07/11 04:48:08;;;;;;;12.75;8.27;;;25.50;69.70;;;;;;6185571;28;82089;-64
2023/07/11 04:51:11;;;;;;;14.70;7.30;;;25.60;69.10;;;;;;6199626;28;80789;-59
2023/07/11 04:54:11;;;;;;;10.57;7.35;;;25.50;69.10;;;;;;6201798;28;82176;-60
2023/07/11 04:57:12;;;;;;;11.18;7.40;;;25.60;68.80;;;;;;6189979;28;81440;-61
2023/07/11 05:00:12;;;;;;;10.95;7.25;;;25.60;68.90;;;;;;6191917;28;80512;-61
2023/07/11 05:03:13;;;;;;;12.63;6.97;;;25.70;68.70;;;;;;6195778;28;81060;-62
2023/07/11 05:06:13;;;;;;;12.85;7.60;;;25.70;68.50;;;;;;6192094;28;80783;-60
2023/07/11 05:09:15;;;;;;;12.55;7.35;;;25.70;68.30;;;;;;6184947;28;81452;-60
2023/07/11 05:12:15;;;;;;;11.38;8.07;;;25.80;68.40;;;;;;6185485;28;80389;-61
2023/07/11 05:15:16;;;;;;;12.82;7.80;;;25.70;68.60;;;;;;6186666;28;80994;-62
2023/07/11 05:18:16;;;;;;;9.10;6.47;;;25.70;68.50;;;;;;6199879;28;80476;-60
2023/07/11 05:21:17;;;;;;;11.68;7.60;;;25.70;68.30;;;;;;6200693;28;81287;-60
2023/07/11 05:24:17;;;;;;;8.63;6.68;;;25.70;68.70;;;;;;6187346;28;82990;-62
2023/07/11 05:27:18;;;;;;;16.90;7.38;;;25.70;68.10;;;;;;6176603;28;81443;-60
2023/07/11 05:30:19;;;;;;;11.73;6.75;;;25.50;68.00;;;;;;6171034;28;83483;-61
2023/07/11 05:33:19;;;;;;;9.88;6.50;;;25.60;68.10;;;;;;6177543;28;80602;-60
2023/07/11 05:36:32;;;;;;;9.73;6.60;;;25.60;67.70;;;;;;6209195;28;81276;-61
2023/07/11 05:39:33;;;;;;;12.40;7.20;;;25.60;67.90;;;;;;6209943;28;85471;-59
2023/07/11 05:42:33;;;;;;;12.07;7.22;;;25.70;67.60;;;;;;6193546;28;80767;-60
2023/07/11 05:45:34;;;;;;;12.57;6.93;;;25.70;67.50;;;;;;6191236;28;80946;-60
2023/07/11 05:48:34;;;;;;;12.32;7.13;;;25.70;67.60;;;;;;6191017;27;80575;-59
2023/07/11 05:51:35;;;;;;;11.93;6.82;;;25.70;67.20;;;;;;6187832;28;80703;-59
2023/07/11 05:54:35;;;;;;;13.02;6.43;;;25.90;66.80;;;;;;6201244;27;81341;-59
2023/07/11 05:57:36;;;;;;;10.10;7.22;;;25.90;66.60;;;;;;6200977;27;81209;-60
2023/07/11 06:00:36;;;;;;;9.90;6.43;;;25.90;66.40;;;;;;6186239;27;81340;-61
2023/07/11 06:03:37;;;;;;;15.52;6.45;;;25.90;66.50;;;;;;6198019;27;84218;-59
2023/07/11 06:06:41;;;;;;;9.05;6.22;;;25.90;66.40;;;;;;6199548;27;81096;-61
2023/07/11 06:09:42;;;;;;;9.50;6.05;;;25.90;65.90;;;;;;6192684;28;80262;-61
2023/07/11 06:12:43;;;;;;;10.00;6.55;;;26.00;66.00;;;;;;6202136;27;80522;-59
2023/07/11 06:15:43;;;;;;;10.52;6.43;;;26.00;65.80;;;;;;6185907;28;81167;-59
2023/07/11 06:18:44;;;;;;;10.52;6.90;;;26.00;65.60;;;;;;6195932;28;80374;-60
2023/07/11 06:21:44;;;;;;;11.00;6.55;;;25.90;65.60;;;;;;6198613;27;80691;-60
2023/07/11 06:24:45;;;;;;;11.38;6.88;;;25.80;65.60;;;;;;6194911;27;83889;-59
2023/07/11 06:27:45;;;;;;;12.52;6.43;;;25.90;65.70;;;;;;6198995;27;84109;-60
2023/07/11 06:30:47;;;;;;;14.68;6.95;;;25.90;65.80;;;;;;6199493;27;80958;-60
2023/07/11 06:33:47;;;;;;;8.68;6.10;;;25.80;65.60;;;;;;6192372;28;80604;-58
2023/07/11 06:36:48;;;;;;;9.13;6.50;;;25.80;65.50;;;;;;6207889;27;80546;-59
2023/07/11 06:39:48;;;;;;;14.30;6.03;;;25.80;65.50;;;;;;6200001;28;80917;-58
2023/07/11 06:42:49;;;;;;;9.63;6.30;;;25.80;65.10;;;;;;6198840;27;80356;-59
2023/07/11 06:45:49;;;;;;;9.55;6.18;;;25.90;65.20;;;;;;6198981;28;80700;-59
2023/07/11 06:48:50;;;;;;;9.70;6.68;;;25.90;65.00;;;;;;6188825;28;80962;-59
2023/07/11 06:51:50;;;;;;;7.38;6.00;;;25.90;64.90;;;;;;6188384;28;80899;-60
2023/07/11 06:54:51;;;;;;;11.63;6.90;;;25.90;64.40;;;;;;6175768;28;81676;-59
2023/07/11 06:57:51;;;;;;;13.43;6.93;;;25.90;64.10;;;;;;6192226;27;83351;-59
2023/07/11 07:00:52;;;;;;;7.85;6.03;;;25.90;64.00;;;;;;6180296;27;80655;-59
2023/07/11 07:03:53;;;;;;;11.70;6.40;;;26.00;63.80;;;;;;6197704;28;80345;-64
2023/07/11 07:06:53;;;;;;;11.52;6.20;;;25.90;63.20;;;;;;6190182;28;80795;-61
2023/07/11 07:09:54;;;;;;;8.25;6.05;;;26.00;62.80;;;;;;6194763;28;82429;-63
2023/07/11 07:12:54;;;;;;;10.60;6.00;;;26.10;62.80;;;;;;6198544;27;83159;-60
2023/07/11 07:15:56;;;;;;;8.73;6.03;;;26.10;62.50;;;;;;6176439;28;80583;-60
2023/07/11 07:18:56;;;;;;;8.02;6.15;;;26.10;62.60;;;;;;6195345;28;81263;-62
2023/07/11 07:21:57;;;;;;;9.10;6.30;;;26.10;62.10;;;;;;6192646;28;83146;-62
2023/07/11 07:24:57;;;;;;;10.52;5.70;;;26.00;62.20;;;;;;6181850;27;80245;-62
2023/07/11 07:27:58;;;;;;;7.85;5.97;;;26.10;62.00;;;;;;6201677;27;80985;-61
2023/07/11 07:30:59;;;;;;;11.32;6.25;;;26.00;61.90;;;;;;6199620;28;81344;-60
2023/07/11 07:33:59;;;;;;;9.77;5.75;;;26.10;61.90;;;;;;6209734;28;80432;-61
2023/07/11 07:37:00;;;;;;;13.07;6.20;;;26.10;61.60;;;;;;6215934;28;81075;-62
2023/07/11 07:40:00;;;;;;;10.60;6.43;;;26.10;61.40;;;;;;6198146;28;80584;-62
2023/07/11 07:43:01;;;;;;;8.52;5.30;;;26.20;61.10;;;;;;6199337;27;80488;-60
2023/07/11 07:46:01;;;;;;;10.82;6.22;;;26.20;60.70;;;;;;6197364;27;80847;-61
2023/07/11 07:49:02;;;;;;;10.35;6.30;;;26.30;61.00;;;;;;6197416;27;81482;-60
2023/07/11 07:52:03;;;;;;;11.27;5.82;;;26.30;60.60;;;;;;6191288;28;80670;-61
2023/07/11 07:55:03;;;;;;;10.15;6.00;;;26.40;60.90;;;;;;6188709;28;82807;-60
2023/07/11 07:58:04;;;;;;;8.90;5.43;;;26.40;60.50;;;;;;6191255;28;80976;-61
2023/07/11 08:01:05;;;;;;;9.05;5.20;;;26.20;60.50;;;;;;6177643;28;81032;-64
2023/07/11 08:04:06;;;;;;;9.63;5.82;;;26.20;60.30;;;;;;6179757;28;82869;-64
2023/07/11 08:07:06;;;;;;;6.35;5.38;;;26.20;60.40;;;;;;6201819;27;80871;-64
2023/07/11 08:10:07;;;;;;;14.40;6.22;;;26.20;61.10;;;;;;6195667;28;80735;-60
2023/07/11 08:13:07;;;;;;;9.82;5.90;;;26.20;60.60;;;;;;6193469;27;80735;-61
2023/07/11 08:16:08;;;;;;;8.63;6.30;;;26.20;61.00;;;;;;6191318;28;80481;-70
2023/07/11 08:19:08;;;;;;;8.52;6.10;;;26.20;61.20;;;;;;6177991;28;80784;-67
2023/07/11 08:22:09;;;;;;;6.78;5.35;;;26.20;61.00;;;;;;6191922;28;82255;-67
2023/07/11 08:25:09;;;;;;;11.77;5.60;;;26.20;62.40;;;;;;6178339;28;82822;-67
2023/07/11 08:28:10;;;;;;;7.18;6.15;;;26.30;62.80;;;;;;6198174;28;80603;-56
2023/07/11 08:31:11;;;;;;;7.78;6.10;;;26.30;61.50;;;;;;6199221;28;81063;-57
2023/07/11 08:34:11;;;;;;;8.13;5.35;;;26.40;59.30;;;;;;6199968;27;81513;-72
2023/07/11 08:37:13;;;;;;;11.88;5.75;;;26.40;58.40;;;;;;6199175;28;83394;-71
2023/07/11 08:40:14;;;;;;;12.90;5.78;;;26.40;58.10;;;;;;6207232;28;81357;-75
2023/07/11 08:43:14;;;;;;;11.90;5.45;;;26.30;57.90;;;;;;6222882;27;80811;-73
2023/07/11 08:46:15;;;;;;;11.25;5.65;;;26.20;57.90;;;;;;6224396;27;80742;-70
2023/07/11 08:49:15;;;;;;;13.57;6.03;;;26.30;58.00;;;;;;6221489;27;81852;-71
2023/07/11 08:52:17;;;;;;;13.10;5.38;;;26.40;58.20;;;;;;6220383;27;80921;-70
2023/07/11 08:55:18;;;;;;;9.95;6.13;;;26.30;58.90;;;;;;6203903;28;80615;-72
2023/07/11 08:58:18;;;;;;;7.97;4.97;;;26.50;58.30;;;;;;6191419;28;82430;-70
2023/07/11 09:01:19;;;;;;;7.05;5.40;;;26.50;58.60;;;;;;6193578;28;82236;-64
2023/07/11 09:04:20;;;;;;;8.07;4.93;;;26.40;58.70;;;;;;6189751;27;85643;-71
2023/07/11 09:07:20;;;;;;;7.18;5.13;;;26.40;58.70;;;;;;6186712;28;81714;-71
2023/07/11 09:10:21;;;;;;;6.22;4.88;;;26.50;59.00;;;;;;6198343;27;82763;-59
2023/07/11 09:13:21;;;;;;;8.68;5.50;;;26.50;58.30;;;;;;6186928;28;81359;-60
2023/07/11 09:16:22;;;;;;;8.30;5.25;;;26.60;58.50;;;;;;6186477;28;81024;-59
2023/07/11 09:19:22;;;;;;;7.35;5.75;;;26.50;58.70;;;;;;6191246;28;80592;-60
2023/07/11 09:22:23;;;;;;;9.07;5.75;;;26.50;58.70;;;;;;6184547;28;80677;-59
2023/07/11 09:25:23;;;;;;;8.55;5.53;;;26.60;58.20;;;;;;6196970;27;81004;-58
2023/07/11 09:28:24;;;;;;;11.25;5.10;;;26.60;57.70;;;;;;6188084;28;80472;-58
2023/07/11 09:31:24;;;;;;;10.32;6.18;;;26.60;57.50;;;;;;6200019;28;80632;-59
2023/07/11 09:34:25;;;;;;;8.55;5.15;;;26.60;57.10;;;;;;6201578;27;81192;-59
2023/07/11 09:37:27;;;;;;;8.65;5.65;;;26.70;55.90;;;;;;6208018;28;82526;-58
2023/07/11 09:40:28;;;;;;;14.57;5.68;;;26.70;55.90;;;;;;6211861;28;80472;-59
2023/07/11 09:43:28;;;;;;;8.00;4.72;;;26.70;56.40;;;;;;6200123;27;80763;-59
2023/07/11 09:46:29;;;;;;;9.18;5.00;;;26.80;55.90;;;;;;6196574;27;80420;-57
2023/07/11 09:49:30;;;;;;;9.90;5.38;;;26.70;56.30;;;;;;6174943;28;81566;-56
2023/07/11 09:52:31;;;;;;;7.32;5.32;;;26.80;57.40;;;;;;6184572;28;81525;-57
2023/07/11 09:55:35;;;;;;;6.70;5.10;;;26.80;58.80;;;;;;6192498;27;81279;-54
2023/07/11 09:58:36;;;;;;;7.85;4.93;;;26.80;58.60;;;;;;6177766;28;81002;-55
2023/07/11 10:01:36;;;;;;;8.70;5.20;;;26.90;58.20;;;;;;6189878;28;80640;-54
2023/07/11 10:04:37;;;;;;;11.18;5.05;;;26.90;58.40;;;;;;6190004;27;80318;-58
2023/07/11 10:07:37;;;;;;;8.52;5.32;;;27.00;58.30;;;;;;6190556;28;80410;-59
2023/07/11 10:10:38;;;;;;;6.70;5.18;;;27.00;58.20;;;;;;6190113;27;80430;-59
2023/07/11 10:13:38;;;;;;;18.75;5.22;;;27.00;56.90;;;;;;6185995;28;80979;-59
2023/07/11 10:16:39;;;;;;;8.85;5.20;;;27.10;56.50;;;;;;6200229;28;81453;-58
2023/07/11 10:19:39;;;;;;;8.45;5.13;;;27.10;56.40;;;;;;6184724;28;86070;-58
2023/07/11 10:22:40;;;;;;;6.28;4.78;;;27.10;55.30;;;;;;6199429;28;80484;-58
2023/07/11 10:25:40;;;;;;;6.05;4.55;;;27.10;55.30;;;;;;6199454;28;80797;-58
2023/07/11 10:28:43;;;;;;;7.85;4.80;;;27.10;55.30;;;;;;6183622;28;81098;-59
2023/07/11 10:31:44;;;;;;;7.40;5.18;;;27.20;54.70;;;;;;6186102;28;82236;-61
2023/07/11 10:34:44;;;;;;;7.13;4.88;;;27.20;55.40;;;;;;6177302;28;82168;-60
2023/07/11 10:37:45;;;;;;;9.45;4.72;;;27.20;54.70;;;;;;6178328;28;80614;-59
2023/07/11 10:40:46;;;;;;;8.73;4.75;;;27.20;54.90;;;;;;6185240;28;81089;-58
2023/07/11 10:43:46;;;;;;;14.05;5.47;;;27.20;54.10;;;;;;6197390;27;80491;-59
2023/07/11 10:46:47;;;;;;;11.48;5.93;;;27.30;53.90;;;;;;6191274;28;81851;-58
2023/07/11 10:49:47;;;;;;;9.68;5.05;;;27.30;53.80;;;;;;6194237;27;80754;-58
2023/07/11 10:52:48;;;;;;;8.75;5.05;;;27.40;54.40;;;;;;6196803;28;81739;-61
2023/07/11 10:55:48;;;;;;;9.85;5.15;;;27.40;54.60;;;;;;6190014;28;80776;-63
2023/07/11 10:58:49;;;;;;;7.88;5.20;;;27.40;54.50;;;;;;6196755;28;83206;-60
2023/07/11 11:01:49;;;;;;;11.40;5.50;;;27.30;54.30;;;;;;6203770;27;80902;-61
2023/07/11 11:04:50;;;;;;;7.85;5.55;;;27.30;54.40;;;;;;6190744;28;80573;-60
2023/07/11 11:07:50;;;;;;;11.25;5.05;;;27.20;54.60;;;;;;6197706;28;81093;-60
2023/07/11 11:10:51;;;;;;;6.95;4.70;;;27.30;54.40;;;;;;6189715;27;80548;-61
2023/07/11 11:13:52;;;;;;;6.38;4.97;;;27.20;53.90;;;;;;6188134;28;81543;-61
2023/07/11 11:16:52;;;;;;;7.20;5.05;;;27.20;53.70;;;;;;6189406;28;80645;-61
2023/07/11 11:19:53;;;;;;;6.80;5.35;;;27.10;53.60;;;;;;6186402;28;80333;-61
2023/07/11 11:22:53;;;;;;;7.53;4.63;;;27.10;53.80;;;;;;6186946;27;81419;-59
2023/07/11 11:25:54;;;;;;;11.07;5.25;;;27.10;53.60;;;;;;6189478;28;81149;-61
2023/07/11 11:28:54;;;;;;;7.07;4.85;;;27.10;53.60;;;;;;6177958;28;80731;-59
2023/07/11 11:31:55;;;;;;;5.85;4.22;;;27.20;53.60;;;;;;6187178;28;80809;-59
2023/07/11 11:34:55;;;;;;;14.75;6.00;;;27.20;53.40;;;;;;6191455;28;81075;-59
2023/07/11 11:37:56;;;;;;;10.50;5.80;;;27.20;53.30;;;;;;6205303;28;80666;-62
2023/07/11 11:40:57;;;;;;;6.82;4.80;;;27.10;52.70;;;;;;6178827;28;83139;-60
2023/07/11 11:43:57;;;;;;;18.33;4.68;;;27.10;52.30;;;;;;6187377;28;83939;-59
2023/07/11 11:46:58;;;;;;;8.93;4.50;;;27.10;51.70;;;;;;6189096;28;81144;-60
2023/07/11 11:49:58;;;;;;;7.13;5.00;;;26.90;51.90;;;;;;6186201;28;81629;-60
2023/07/11 11:52:59;;;;;;;7.32;5.00;;;27.00;52.20;;;;;;6186835;27;80519;-61
2023/07/11 11:55:59;;;;;;;6.05;4.57;;;27.00;52.40;;;;;;6191664;27;81292;-60
2023/07/11 11:59:00;;;;;;;8.65;4.45;;;27.00;52.00;;;;;;6190677;28;80467;-61
2023/07/11 12:02:00;;;;;;;6.93;4.78;;;27.00;50.90;;;;;;6189740;28;80423;-62
2023/07/11 12:05:01;;;;;;;6.88;4.38;;;27.00;50.80;;;;;;6199459;27;82489;-64
2023/07/11 12:08:02;;;;;;;5.68;4.22;;;27.10;50.70;;;;;;6198625;27;80940;-61
2023/07/11 12:11:02;;;;;;;4.38;3.60;;;27.00;50.70;;;;;;6202858;28;81148;-61
2023/07/11 12:14:03;;;;;;;10.68;4.28;;;27.10;50.50;;;;;;6197860;27;80822;-60
2023/07/11 12:17:03;;;;;;;8.10;4.35;;;27.10;50.70;;;;;;6190486;27;80513;-61
2023/07/11 12:20:05;;;;;;;5.65;3.42;;;27.10;50.60;;;;;;6190493;27;80279;-61
2023/07/11 12:23:05;;;;;;;4.50;3.05;;;27.10;49.70;;;;;;6194411;27;82087;-61
2023/07/11 12:26:06;;;;;;;3.47;3.08;;;27.00;48.60;;;;;;6193285;28;81611;-62
2023/07/11 12:29:06;;;;;;;8.52;3.90;;;26.90;48.80;;;;;;6201432;27;81089;-61
2023/07/11 12:32:07;;;;;;;7.93;3.80;;;26.90;48.70;;;;;;6196215;28;80572;-68
2023/07/11 12:35:08;;;;;;;5.15;3.58;;;27.10;49.30;;;;;;6180760;28;83770;-67
2023/07/11 12:38:08;;;;;;;6.43;3.80;;;27.10;49.40;;;;;;6216627;28;81095;-68
2023/07/11 12:41:09;;;;;;;8.32;4.43;;;27.10;49.80;;;;;;6210570;28;80084;-66
2023/07/11 12:44:09;;;;;;;5.05;3.67;;;27.10;49.70;;;;;;6189370;28;80576;-68
2023/07/11 12:47:10;;;;;;;7.25;3.83;;;27.30;49.70;;;;;;6199575;28;83943;-67
2023/07/11 12:50:10;;;;;;;6.07;3.38;;;27.30;49.70;;;;;;6185414;28;80988;-58
2023/07/11 12:53:11;;;;;;;7.85;3.67;;;27.20;48.50;;;;;;6196255;27;82054;-59
2023/07/11 12:56:11;;;;;;;3.55;3.15;;;27.20;48.60;;;;;;6197403;28;80873;-59
2023/07/11 12:59:12;;;;;;;3.72;3.35;;;27.20;47.90;;;;;;6190268;28;80303;-60
2023/07/11 13:02:16;;;;;;;6.45;3.67;;;27.20;48.40;;;;;;6196790;28;81898;-59
2023/07/11 13:05:16;;;;;;;6.82;3.50;;;27.30;48.00;;;;;;6197012;27;80401;-59
2023/07/11 13:08:17;;;;;;;6.68;3.65;;;27.20;48.00;;;;;;6190112;28;80423;-67
2023/07/11 13:11:17;;;;;;;6.53;3.40;;;27.20;47.90;;;;;;6190069;28;83387;-67
2023/07/11 13:14:18;;;;;;;4.80;3.38;;;27.20;48.00;;;;;;6186345;28;81560;-66
2023/07/11 13:17:19;;;;;;;7.22;3.88;;;27.20;48.00;;;;;;6190940;27;81221;-68
2023/07/11 13:20:19;;;;;;;4.60;3.35;;;27.10;48.20;;;;;;6200848;28;82579;-65
2023/07/11 13:23:20;;;;;;;10.73;3.38;;;27.20;48.10;;;;;;6201721;27;80264;-67
2023/07/11 13:26:20;;;;;;;6.55;3.35;;;27.10;47.80;;;;;;6198680;27;80727;-67
2023/07/11 13:29:21;;;;;;;5.13;3.33;;;27.10;48.00;;;;;;6201050;27;81015;-67
2023/07/11 13:32:21;;;;;;;5.25;3.78;;;27.20;48.10;;;;;;6196979;28;81026;-69
2023/07/11 13:35:22;;;;;;;5.25;3.17;;;27.20;48.00;;;;;;6216647;28;80512;-69
2023/07/11 13:38:22;;;;;;;9.40;3.50;;;27.30;48.00;;;;;;6226716;27;80620;-67
2023/07/11 13:41:23;;;;;;;7.75;3.50;;;27.40;48.50;;;;;;6225870;27;83505;-70
2023/07/11 13:44:24;;;;;;;9.95;3.80;;;27.50;48.40;;;;;;6224347;28;81217;-69
2023/07/11 13:47:24;;;;;;;6.22;3.42;;;27.40;47.90;;;;;;6216906;27;82908;-67
2023/07/11 13:50:26;;;;;;;4.00;2.65;;;27.40;47.70;;;;;;6196648;28;81129;-71
2023/07/11 13:53:26;;;;;;;5.53;3.58;;;27.30;46.80;;;;;;6189644;27;80442;-70
2023/07/11 13:56:27;;;;;;;4.90;3.17;;;27.30;46.90;;;;;;6191377;27;80586;-67
2023/07/11 13:59:27;;;;;;;7.57;3.50;;;27.30;47.10;;;;;;6195287;28;80723;-68
2023/07/11 14:02:28;;;;;;;4.85;3.38;;;27.40;47.90;;;;;;6196969;28;80471;-69
2023/07/11 14:05:28;;;;;;;5.03;3.17;;;27.40;46.70;;;;;;6190736;28;80587;-58
2023/07/11 14:08:29;;;;;;;3.42;3.13;;;27.40;46.90;;;;;;6181268;28;80269;-59
2023/07/11 14:11:29;;;;;;;4.57;3.15;;;27.50;46.90;;;;;;6195680;28;80661;-57
2023/07/11 14:14:30;;;;;;;5.03;3.40;;;27.40;46.90;;;;;;6184261;27;80325;-57
2023/07/11 14:17:30;;;;;;;5.03;3.30;;;27.30;46.70;;;;;;6182895;28;81657;-58
2023/07/11 14:20:31;;;;;;;3.95;3.00;;;27.30;46.40;;;;;;6176694;28;80258;-58
2023/07/11 14:23:31;;;;;;;5.95;3.17;;;27.30;45.90;;;;;;6198118;28;80437;-58
2023/07/11 14:26:32;;;;;;;9.55;3.72;;;27.40;46.40;;;;;;6188506;27;80387;-58
2023/07/11 14:29:33;;;;;;;7.05;3.85;;;27.50;46.20;;;;;;6192534;27;80517;-59
2023/07/11 14:32:33;;;;;;;4.15;3.08;;;27.50;45.10;;;;;;6200248;28;80539;-60
2023/07/11 14:35:34;;;;;;;5.63;3.33;;;27.50;45.60;;;;;;6216278;28;80057;-59
2023/07/11 14:38:34;;;;;;;4.93;3.10;;;27.50;45.80;;;;;;6219573;28;81079;-59
2023/07/11 14:41:35;;;;;;;5.38;3.35;;;27.60;46.00;;;;;;6192009;28;80666;-66
2023/07/11 14:44:35;;;;;;;9.15;3.55;;;27.60;46.10;;;;;;6192276;27;83253;-66
2023/07/11 14:47:36;;;;;;;6.32;3.47;;;27.60;46.20;;;;;;6189839;27;80790;-67
2023/07/11 14:50:37;;;;;;;5.13;3.28;;;27.60;44.70;;;;;;6203607;27;80587;-67
2023/07/11 14:53:37;;;;;;;8.55;3.40;;;27.60;44.80;;;;;;6218984;28;87539;-64
2023/07/11 14:56:38;;;;;;;11.93;3.30;;;27.50;45.10;;;;;;6204305;28;82681;-66
2023/07/11 14:59:38;;;;;;;4.13;3.42;;;27.50;45.40;;;;;;6201522;28;83523;-58
2023/07/11 15:02:39;;;;;;;4.18;3.78;;;27.60;45.60;;;;;;6199267;28;80745;-60
2023/07/11 15:05:41;;;;;;;7.90;3.60;;;27.60;45.70;;;;;;6184077;27;83370;-59
2023/07/11 15:08:42;;;;;;;5.38;3.13;;;27.60;46.00;;;;;;6216388;28;85545;-59
2023/07/11 15:11:47;;;;;;;5.03;3.70;;;27.60;46.20;;;;;;6223744;28;83499;-60
2023/07/11 15:14:47;;;;;;;10.17;3.67;;;27.60;46.10;;;;;;6216837;27;80653;-59
2023/07/11 15:17:48;;;;;;;3.55;3.03;;;27.60;46.80;;;;;;6222433;27;81661;-61
2023/07/11 15:20:48;;;;;;;5.40;3.42;;;27.60;47.40;;;;;;6220418;27;81199;-61
2023/07/11 15:23:49;;;;;;;5.55;3.75;;;27.60;47.30;;;;;;6222067;27;80467;-59
2023/07/11 15:26:49;;;;;;;7.05;3.65;;;27.50;47.30;;;;;;6186095;28;80372;-59
2023/07/11 15:29:50;;;;;;;7.13;3.55;;;27.50;47.30;;;;;;6193580;27;80423;-57
2023/07/11 15:32:50;;;;;;;7.18;3.30;;;27.60;48.30;;;;;;6199399;28;80515;-61
2023/07/11 15:35:51;;;;;;;7.63;3.90;;;27.60;47.30;;;;;;6217908;28;81687;-62